.
WxDataArchive / Data Records for 2013-09-09
2013-09-08 September 2013 2013-09-10

Data Records for Monday, 09 September 2013

Time	Temp	Chill	HIndex	Humid	Dewpt	 Wind 	HiWind	WindDir	Rain 	Barom 
-----	----	-----	------	-----	-----	------	------	-------	-----	----- 
00:00	64.3	64.3	64.3	80	58.0	1	3	248	0.00	30.011 
00:05	64.2	64.2	64.2	80	57.9	1	3	248	0.00	30.011 
00:10	64.0	64.0	64.0	81	58.0	1	4	68	0.00	30.011 
00:15	63.9	63.9	63.9	81	57.9	0	1	68	0.00	30.011 
00:20	63.7	63.7	63.7	81	57.8	1	2	68	0.00	30.011 
00:25	63.5	63.5	63.5	81	57.6	0	3	68	0.00	30.011 
00:30	63.4	63.4	63.4	81	57.5	0	2	68	0.00	30.016 
00:35	63.2	63.2	63.2	81	57.3	0	2	68	0.00	30.016 
00:40	63.1	63.1	63.1	81	57.2	0	2	68	0.00	30.016 
00:45	62.9	62.9	62.9	81	57.0	0	2	68	0.00	30.017 
00:50	62.9	62.9	62.9	82	57.3	0	2	68	0.00	30.017 
00:55	62.9	62.9	62.9	82	57.3	0	2	68	0.00	30.017 
01:00	62.7	62.7	62.7	82	57.1	0	2	68	0.00	30.012 
01:05	62.6	62.6	62.6	81	56.7	0	1	68	0.00	30.012 
01:10	62.6	62.6	62.6	81	56.7	0	3	68	0.00	30.012 
01:15	62.4	62.4	62.4	80	56.1	1	4	68	0.00	30.022 
01:20	62.4	62.4	62.4	79	55.8	0	2	68	0.00	30.022 
01:25	62.4	62.4	62.4	79	55.8	0	2	68	0.00	30.022 
01:30	62.4	62.4	62.4	79	55.8	0	1	68	0.00	30.024 
01:35	62.4	62.4	62.4	78	55.4	0	1	68	0.00	30.024 
01:40	62.4	62.4	62.4	78	55.4	1	2	68	0.00	30.024 
01:45	62.4	62.4	62.4	78	55.4	0	2	68	0.00	30.024 
01:50	62.4	62.4	62.4	78	55.4	0	1	68	0.00	30.024 
01:55	62.4	62.4	62.4	78	55.4	0	2	68	0.00	30.024 
02:00	62.4	62.4	62.4	78	55.4	0	1	68	0.00	30.025 
02:05	62.4	62.4	62.4	77	55.1	1	2	68	0.00	30.025 
02:10	62.4	62.4	62.4	76	54.7	1	3	68	0.00	30.025 
02:15	62.6	62.6	62.6	75	54.6	0	2	68	0.00	30.023 
02:20	62.6	62.6	62.6	75	54.6	0	2	68	0.00	30.023 
02:25	62.7	62.7	62.7	75	54.7	0	2	68	0.00	30.023 
02:30	62.7	62.7	62.7	74	54.3	0	2	68	0.00	30.018 
02:35	62.6	62.6	62.6	74	54.2	0	2	68	0.00	30.018 
02:40	62.6	62.6	62.6	74	54.2	1	3	68	0.00	30.018 
02:45	62.6	62.6	62.6	73	53.8	0	3	68	0.00	30.016 
02:50	62.6	62.6	62.6	73	53.8	0	2	68	0.00	30.016 
02:55	62.6	62.6	62.6	73	53.8	0	2	68	0.00	30.016 
03:00	62.6	62.6	62.6	73	53.8	0	2	68	0.00	30.013 
03:05	62.6	62.6	62.6	72	53.4	1	5	68	0.00	30.013 
03:10	62.6	62.6	62.6	72	53.4	1	5	90	0.00	30.013 
03:15	62.6	62.6	62.6	72	53.4	0	2	90	0.00	30.005 
03:20	62.4	62.4	62.4	73	53.6	0	2	90	0.00	30.005 
03:25	62.4	62.4	62.4	73	53.6	0	2	90	0.00	30.005 
03:30	62.3	62.3	62.3	73	53.5	1	3	90	0.00	30.007 
03:35	62.1	62.1	62.1	73	53.3	0	2	90	0.00	30.007 
03:40	62.1	62.1	62.1	73	53.3	0	4	90	0.00	30.007 
03:45	62.1	62.1	62.1	72	53.0	1	4	90	0.00	30.005 
03:50	62.1	62.1	62.1	72	53.0	1	4	90	0.00	30.005 
03:55	62.1	62.1	62.1	72	53.0	0	4	90	0.00	30.005 
04:00	62.1	62.1	62.1	71	52.6	1	2	90	0.00	29.996 
04:05	62.1	62.1	62.1	71	52.6	1	3	90	0.00	29.996 
04:10	62.1	62.1	62.1	71	52.6	0	3	90	0.00	29.996 
04:15	62.1	62.1	62.1	71	52.6	0	1	90	0.00	29.993 
04:20	62.1	62.1	62.1	70	52.2	0	3	90	0.00	29.993 
04:25	62.1	62.1	62.1	70	52.2	0	2	90	0.00	29.993 
04:30	62.1	62.1	62.1	71	52.6	0	1	90	0.00	29.997 
04:35	62.1	62.1	62.1	71	52.6	1	3	90	0.00	29.997 
04:40	62.1	62.1	62.1	71	52.6	1	3	90	0.00	29.997 
04:45	62.1	62.1	62.1	71	52.6	1	3	90	0.00	29.990 
04:50	62.1	62.1	62.1	71	52.6	0	2	90	0.00	29.990 
04:55	62.0	62.0	62.0	71	52.5	1	7	90	0.00	29.990 
05:00	62.0	62.0	62.0	71	52.5	1	3	68	0.00	29.989 
05:05	62.0	62.0	62.0	72	52.9	1	4	68	0.00	29.989 
05:10	62.0	62.0	62.0	72	52.9	1	4	68	0.00	29.989 
05:15	62.0	62.0	62.0	72	52.9	1	5	90	0.00	29.980 
05:20	62.0	62.0	62.0	72	52.9	0	2	90	0.00	29.980 
05:25	61.8	61.8	61.8	73	53.0	1	2	90	0.00	29.980 
05:30	61.6	61.6	61.6	73	52.9	0	3	90	0.00	29.979 
05:35	61.5	61.5	61.5	74	53.1	0	2	90	0.00	29.979 
05:40	61.5	61.5	61.5	74	53.1	0	2	90	0.00	29.979 
05:45	61.3	61.3	61.3	75	53.3	0	1	90	0.00	29.976 
05:50	61.3	61.3	61.3	75	53.3	0	3	90	0.00	29.976 
05:55	61.3	61.3	61.3	76	53.7	1	3	90	0.00	29.976 
06:00	61.2	61.2	61.2	76	53.6	0	1	90	0.00	29.974 
06:05	61.2	61.2	61.2	77	53.9	0	1	90	0.00	29.974 
06:10	61.2	61.2	61.2	77	53.9	0	1	90	0.00	29.974 
06:15	61.0	61.0	61.0	77	53.7	0	2	90	0.00	29.978 
06:20	60.9	60.9	60.9	78	54.0	1	4	90	0.00	29.978 
06:25	60.7	60.7	60.7	78	53.8	1	3	90	0.00	29.978 
06:30	60.7	60.7	60.7	79	54.1	0	2	90	0.00	29.977 
06:35	60.5	60.5	60.5	79	54.0	0	1	90	0.00	29.977 
06:40	60.5	60.5	60.5	79	54.0	0	0	---	0.00	29.977 
06:45	60.5	60.5	60.5	80	54.3	0	2	90	0.00	29.982 
06:50	60.5	60.5	60.5	80	54.3	1	4	90	0.00	29.982 
06:55	60.5	60.5	60.5	81	54.6	1	3	90	0.00	29.982 
07:00	60.5	60.5	60.5	81	54.6	0	1	90	0.00	29.987 
07:05	60.4	60.4	60.4	81	54.5	0	1	90	0.00	29.987 
07:10	60.4	60.4	60.4	81	54.5	0	1	90	0.00	29.987 
07:15	60.4	60.4	60.4	82	54.9	1	3	90	0.00	29.992 
07:20	60.4	60.4	60.4	82	54.9	1	3	90	0.00	29.992 
07:25	60.4	60.4	60.4	82	54.9	0	1	90	0.00	29.992 
07:30	60.4	60.4	60.4	82	54.9	1	2	90	0.00	29.993 
07:35	60.4	60.4	60.4	83	55.2	1	2	90	0.00	29.993 
07:40	60.4	60.4	60.4	83	55.2	0	2	90	0.00	29.993 
07:45	60.4	60.4	60.4	83	55.2	0	2	90	0.00	29.993 
07:50	60.4	60.4	60.4	83	55.2	1	3	90	0.00	29.993 
07:55	60.5	60.5	60.5	84	55.6	0	2	90	0.00	29.993 
08:00	60.5	60.5	60.5	84	55.6	0	2	90	0.00	29.994 
08:05	60.5	60.5	60.5	84	55.6	0	1	90	0.00	29.994 
08:10	60.7	60.7	60.7	84	55.8	1	3	90	0.00	29.994 
08:15	60.7	60.7	60.7	84	55.8	1	3	90	0.00	30.004 
08:20	60.9	60.9	60.9	84	56.0	1	4	90	0.00	30.004 
08:25	60.9	60.9	60.9	84	56.0	1	3	90	0.00	30.004 
08:30	60.9	60.9	60.9	84	56.0	1	3	90	0.00	30.004 
08:35	61.0	61.0	61.0	84	56.1	1	3	90	0.00	30.004 
08:40	61.2	61.2	61.2	84	56.3	1	3	90	0.00	30.004 
08:45	61.3	61.3	61.3	84	56.4	1	3	90	0.00	30.006 
08:50	61.5	61.5	61.5	84	56.6	1	3	90	0.00	30.006 
08:55	61.6	61.6	61.6	84	56.7	1	3	90	0.00	30.006 
09:00	61.8	61.8	61.8	84	56.9	1	3	90	0.00	30.000 
09:05	61.8	61.8	61.8	83	56.6	1	4	90	0.00	30.000 
09:10	61.8	61.8	61.8	84	56.9	1	3	90	0.00	30.000 
09:15	62.0	62.0	62.0	84	57.1	0	2	45	0.00	30.010 
09:20	62.1	62.1	62.1	84	57.2	0	1	45	0.00	30.010 
09:25	62.1	62.1	62.1	85	57.5	0	3	45	0.00	30.010 
09:30	62.3	62.3	62.3	85	57.7	0	2	45	0.00	30.003 
09:35	62.4	62.4	62.4	85	57.8	0	2	45	0.00	30.003 
09:40	62.4	62.4	62.4	86	58.2	0	1	45	0.00	30.003 
09:45	62.6	62.6	62.6	85	58.0	0	2	45	0.00	29.997 
09:50	62.7	62.7	62.7	85	58.1	0	1	45	0.00	29.997 
09:55	62.9	62.9	62.9	85	58.3	0	3	45	0.00	29.997 
10:00	62.9	62.9	62.9	85	58.3	0	1	45	0.00	30.004 
10:05	63.2	63.2	63.2	85	58.6	0	2	45	0.00	30.004 
10:10	63.2	63.2	63.2	85	58.6	1	3	45	0.00	30.004 
10:15	63.7	63.7	63.7	85	59.1	0	1	45	0.00	30.005 
10:20	64.2	64.2	64.2	84	59.3	0	1	45	0.00	30.005 
10:25	64.5	64.5	64.5	83	59.2	0	2	45	0.00	30.005 
10:30	64.7	64.7	64.7	83	59.4	0	3	45	0.00	30.010 
10:35	64.7	64.7	64.7	83	59.4	0	1	45	0.00	30.010 
10:40	64.7	64.7	64.7	83	59.4	0	1	45	0.00	30.010 
10:45	64.7	64.7	64.7	83	59.4	0	1	45	0.00	29.995 
10:50	64.7	64.7	64.7	84	59.7	0	1	45	0.00	29.995 
10:55	64.8	64.8	64.8	84	59.8	0	0	---	0.00	29.995 
11:00	65.0	65.0	65.0	84	60.0	0	0	---	0.00	30.005 
11:05	65.2	65.2	65.2	84	60.2	0	0	---	0.00	30.005 
11:10	65.6	65.6	65.6	85	61.0	0	1	45	0.00	30.005 
11:15	66.3	66.3	66.3	84	61.3	1	2	45	0.00	30.007 
11:20	66.4	66.4	66.4	84	61.4	0	2	45	0.00	30.007 
11:25	66.6	66.6	66.6	85	61.9	0	2	45	0.00	30.007 
11:30	66.9	66.9	66.9	84	61.9	0	1	45	0.00	30.008 
11:35	67.3	67.3	67.3	84	62.3	0	1	45	0.00	30.008 
11:40	67.6	67.6	67.6	83	62.2	0	1	45	0.00	30.008 
11:45	68.3	68.3	68.3	82	62.6	0	2	45	0.00	29.994 
11:50	68.9	68.9	68.9	81	62.8	0	2	45	0.00	29.994 
11:55	69.6	69.6	69.6	81	63.5	0	1	45	0.00	29.994 
12:00	70.6	70.6	70.6	79	63.8	0	1	45	0.00	30.002 
12:05	72.1	72.1	72.1	76	64.1	1	3	45	0.00	30.002 
12:10	73.2	73.2	73.2	73	64.0	0	2	45	0.00	30.002 
12:15	73.7	73.7	73.7	73	64.5	0	1	45	0.00	29.991 
12:20	74.0	74.0	74.0	72	64.4	0	1	45	0.00	29.991 
12:25	74.9	74.9	74.9	72	65.2	0	3	45	0.00	29.991 
12:30	75.6	75.6	77.3	69	64.7	0	2	45	0.00	29.981 
12:35	76.1	76.1	77.8	69	65.2	0	2	45	0.00	29.981 
12:40	76.8	76.8	78.6	68	65.4	1	3	45	0.00	29.981 
12:45	77.7	77.7	79.6	67	65.8	0	2	45	0.00	29.971 
12:50	78.3	78.3	80.3	67	66.4	1	3	338	0.00	29.971 
12:55	79.0	79.0	81.1	66	66.6	1	3	90	0.00	29.971 
13:00	79.8	79.8	82.1	65	67.0	1	3	90	0.00	29.955 
13:05	80.3	80.3	82.8	65	67.4	0	2	90	0.00	29.955 
13:10	81.1	81.1	83.6	63	67.3	1	3	45	0.00	29.955 
13:15	81.4	81.4	84.1	63	67.6	1	4	68	0.00	29.955 
13:20	82.4	82.4	85.4	62	68.0	0	1	68	0.00	29.955 
13:25	83.4	83.4	86.5	60	68.0	1	2	68	0.00	29.955 
13:30	83.8	83.8	87.2	60	68.4	1	3	68	0.00	29.950 
13:35	84.0	84.0	87.8	61	69.1	1	3	90	0.00	29.950 
13:40	84.3	84.3	87.8	59	68.4	1	2	90	0.00	29.950 
13:45	84.7	84.7	88.4	59	68.8	0	4	292	0.00	29.939 
13:50	85.1	85.1	88.8	58	68.6	1	4	22	0.00	29.939 
13:55	85.5	85.5	89.5	58	69.0	1	3	22	0.00	29.939 
14:00	86.1	86.1	90.2	57	69.1	1	2	22	0.00	29.932 
14:05	86.5	86.5	90.6	56	68.9	1	3	338	0.00	29.932 
14:10	87.0	87.0	91.5	56	69.4	1	3	338	0.00	29.932 
14:15	87.4	87.4	91.1	53	68.1	1	5	338	0.00	29.929 
14:20	87.8	87.8	91.4	52	67.9	1	4	248	0.00	29.929 
14:25	88.0	88.0	91.4	51	67.6	1	3	248	0.00	29.929 
14:30	88.2	88.2	92.1	52	68.3	1	3	248	0.00	29.928 
14:35	88.8	88.8	92.4	50	67.7	0	1	248	0.00	29.928 
14:40	89.3	89.3	92.9	49	67.6	1	4	292	0.00	29.928 
14:45	88.6	88.6	91.7	49	67.0	1	4	270	0.00	29.922 
14:50	88.4	88.4	91.7	50	67.4	1	6	270	0.00	29.922 
14:55	88.8	88.8	92.4	50	67.7	1	4	0	0.00	29.922 
15:00	88.8	88.8	91.6	48	66.5	2	4	270	0.00	29.913 
15:05	88.8	88.8	92.0	49	67.1	1	3	270	0.00	29.913 
15:10	89.0	89.0	92.4	49	67.3	2	5	315	0.00	29.913 
15:15	89.5	89.5	93.2	49	67.8	0	2	270	0.00	29.903 
15:20	90.3	90.3	93.4	46	66.7	1	5	270	0.00	29.903 
15:25	90.3	90.3	93.4	46	66.7	1	4	292	0.00	29.903 
15:30	90.3	90.3	93.4	46	66.7	1	4	248	0.00	29.900 
15:35	90.5	90.5	93.3	45	66.2	1	3	248	0.00	29.900 
15:40	90.3	90.3	93.4	46	66.7	1	4	270	0.00	29.900 
15:45	89.9	89.9	92.7	46	66.3	2	7	292	0.00	29.895 
15:50	89.9	89.9	92.7	46	66.3	2	7	248	0.00	29.895 
15:55	90.1	90.1	93.5	47	67.1	1	5	90	0.00	29.895 
16:00	90.3	90.3	93.8	47	67.3	1	3	270	0.00	29.885 
16:05	90.5	90.5	93.8	46	66.8	1	3	270	0.00	29.885 
16:10	90.3	90.3	93.8	47	67.3	1	4	292	0.00	29.885 
16:15	89.7	89.7	92.4	46	66.1	2	4	292	0.00	29.878 
16:20	89.9	89.9	92.7	46	66.3	1	3	270	0.00	29.878 
16:25	90.3	90.3	93.4	46	66.7	2	4	270	0.00	29.878 
16:30	90.5	90.5	93.8	46	66.8	1	5	292	0.00	29.874 
16:35	90.7	90.7	93.7	45	66.4	2	3	315	0.00	29.874 
16:40	91.0	91.0	94.2	45	66.7	2	4	315	0.00	29.874 
16:45	91.0	91.0	94.2	45	66.7	1	4	315	0.00	29.875 
16:50	91.2	91.2	94.1	44	66.2	1	5	270	0.00	29.875 
16:55	91.2	91.2	94.1	44	66.2	1	3	292	0.00	29.875 
17:00	91.0	91.0	94.2	45	66.7	1	3	292	0.00	29.878 
17:05	91.0	91.0	94.6	46	67.3	1	3	292	0.00	29.878 
17:10	90.7	90.7	93.7	45	66.4	2	5	292	0.00	29.878 
17:15	90.7	90.7	93.7	45	66.4	1	6	270	0.00	29.875 
17:20	91.0	91.0	93.8	44	66.0	2	5	90	0.00	29.875 
17:25	90.7	90.7	93.7	45	66.4	1	3	270	0.00	29.875 
17:30	90.7	90.7	93.7	45	66.4	1	3	22	0.00	29.867 
17:35	90.5	90.5	93.3	45	66.2	1	4	248	0.00	29.867 
17:40	90.5	90.5	93.8	46	66.8	1	4	270	0.00	29.867 
17:45	90.5	90.5	93.3	45	66.2	1	3	292	0.00	29.866 
17:50	90.3	90.3	93.4	46	66.7	1	2	292	0.00	29.866 
17:55	90.5	90.5	93.8	46	66.8	0	2	292	0.00	29.866 
18:00	91.0	91.0	94.6	46	67.3	0	3	0	0.00	29.863 
18:05	91.0	91.0	94.6	46	67.3	1	3	270	0.00	29.863 
18:10	90.7	90.7	93.7	45	66.4	1	3	270	0.00	29.863 
18:15	90.5	90.5	93.8	46	66.8	0	2	292	0.00	29.864 
18:20	90.3	90.3	93.4	46	66.7	0	4	292	0.00	29.864 
18:25	90.1	90.1	93.1	46	66.5	1	3	338	0.00	29.864 
18:30	89.9	89.9	92.7	46	66.3	0	3	338	0.00	29.866 
18:35	89.7	89.7	92.4	46	66.1	0	3	338	0.00	29.866 
18:40	89.5	89.5	92.4	47	66.6	0	4	292	0.00	29.866 
18:45	89.5	89.5	92.4	47	66.6	0	2	270	0.00	29.867 
18:50	89.3	89.3	92.1	47	66.4	0	2	22	0.00	29.867 
18:55	89.3	89.3	92.5	48	67.0	0	1	22	0.00	29.867 
19:00	89.0	89.0	92.0	48	66.7	0	1	22	0.00	29.867 
19:05	89.0	89.0	92.4	49	67.3	0	2	22	0.00	29.867 
19:10	88.8	88.8	92.0	49	67.1	0	2	248	0.00	29.867 
19:15	88.6	88.6	91.7	49	67.0	0	1	315	0.00	29.866 
19:20	88.4	88.4	91.7	50	67.4	0	1	315	0.00	29.866 
19:25	88.2	88.2	91.4	50	67.2	0	1	315	0.00	29.866 
19:30	88.0	88.0	91.4	51	67.6	0	1	315	0.00	29.869 
19:35	87.8	87.8	91.4	52	67.9	0	1	315	0.00	29.869 
19:40	87.4	87.4	90.7	52	67.6	0	0	---	0.00	29.869 
19:45	87.0	87.0	90.4	53	67.8	0	0	---	0.00	29.870 
19:50	86.5	86.5	89.9	54	67.8	0	0	---	0.00	29.870 
19:55	86.3	86.3	89.6	54	67.7	0	0	---	0.00	29.870 
20:00	85.9	85.9	89.2	55	67.8	0	0	---	0.00	29.875 
20:05	85.5	85.5	88.9	56	68.0	0	1	315	0.00	29.875 
20:10	85.1	85.1	88.2	56	67.6	0	0	---	0.00	29.875 
20:15	84.9	84.9	88.2	57	67.9	0	0	---	0.00	29.882 
20:20	84.7	84.7	88.1	58	68.3	0	0	---	0.00	29.882 
20:25	84.3	84.3	87.5	58	67.9	0	0	---	0.00	29.882 
20:30	84.0	84.0	87.0	58	67.6	0	0	---	0.00	29.885 
20:35	83.8	83.8	86.9	59	67.9	0	0	---	0.00	29.885 
20:40	83.6	83.6	86.6	59	67.7	0	0	---	0.00	29.885 
20:45	83.4	83.4	86.5	60	68.0	0	0	---	0.00	29.887 
20:50	83.0	83.0	86.1	61	68.1	0	0	---	0.00	29.887 
20:55	82.8	82.8	86.1	62	68.4	0	0	---	0.00	29.887 
21:00	82.4	82.4	85.4	62	68.0	0	1	315	0.00	29.890 
21:05	82.2	82.2	85.1	62	67.9	0	0	---	0.00	29.890 
21:10	82.0	82.0	85.0	63	68.1	0	0	---	0.00	29.890 
21:15	81.8	81.8	84.7	63	67.9	0	0	---	0.00	29.898 
21:20	81.6	81.6	84.6	64	68.2	0	0	---	0.00	29.898 
21:25	81.6	81.6	84.6	64	68.2	0	0	---	0.00	29.898 
21:30	81.4	81.4	84.4	65	68.5	0	0	---	0.00	29.900 
21:35	81.4	81.4	84.4	65	68.5	0	0	---	0.00	29.900 
21:40	81.2	81.2	84.1	65	68.3	0	0	---	0.00	29.900 
21:45	81.2	81.2	84.1	65	68.3	0	1	315	0.00	29.902 
21:50	81.2	81.2	84.1	65	68.3	0	1	315	0.00	29.902 
21:55	81.2	81.2	84.1	65	68.3	0	1	315	0.00	29.902 
22:00	81.2	81.2	84.1	65	68.3	0	1	315	0.00	29.902 
22:05	81.2	81.2	84.1	65	68.3	0	0	---	0.00	29.902 
22:10	81.1	81.1	84.1	66	68.6	0	1	315	0.00	29.902 
22:15	81.1	81.1	84.1	66	68.6	0	0	---	0.00	29.900 
22:20	80.9	80.9	83.8	66	68.4	0	1	315	0.00	29.900 
22:25	80.9	80.9	84.0	67	68.9	0	1	315	0.00	29.900 
22:30	80.7	80.7	83.7	67	68.7	0	0	---	0.00	29.901 
22:35	80.7	80.7	83.8	68	69.1	0	0	---	0.00	29.901 
22:40	80.5	80.5	83.5	68	68.9	0	1	315	0.00	29.901 
22:45	80.5	80.5	83.5	68	68.9	0	1	315	0.00	29.904 
22:50	80.5	80.5	83.5	68	68.9	0	0	---	0.00	29.904 
22:55	80.3	80.3	83.3	69	69.2	0	2	270	0.00	29.904 
23:00	80.3	80.3	83.3	69	69.2	0	2	0	0.00	29.913 
23:05	80.3	80.3	83.3	69	69.2	0	2	270	0.00	29.913 
23:10	80.1	80.1	83.0	69	69.0	0	1	270	0.00	29.913 
23:15	80.1	80.1	83.1	70	69.4	0	0	---	0.00	29.912 
23:20	79.9	79.9	82.8	70	69.2	0	1	270	0.00	29.912 
23:25	79.9	79.9	82.8	70	69.2	0	1	270	0.00	29.912 
23:30	79.9	79.9	82.9	71	69.6	0	0	---	0.00	29.913 
23:35	79.9	79.9	82.9	71	69.6	0	2	270	0.00	29.913 
23:40	79.9	79.9	82.9	71	69.6	0	1	270	0.00	29.913 
23:45	79.9	79.9	82.9	71	69.6	0	0	---	0.00	29.913 
23:50	79.9	79.9	82.9	71	69.6	0	1	270	0.00	29.913 
23:55	79.8	79.8	82.9	72	69.9	0	1	270	0.00	29.913 

CoCoRaHS
IN-AL-39
A2 Web Hosting
Creative Commons License
GoDaddy
search engine by freefind advanced

loaded 2018-11-12 20:03:22 • last modified 2010-11-18 10:43:29
Privacy PolicyDisclaimer
• wx.awcolley.com is powered by PmWiki v.2002016 •
• all content (unless otherwise noted) © 2018 A W Colley